createdAt,value
2022-10-17T00:00:05.920Z,97.75
2022-10-17T00:02:32.372Z,98.00
2022-10-17T00:04:58.791Z,97.92
2022-10-17T00:07:25.632Z,98.32
2022-10-17T00:09:52.266Z,98.10
2022-10-17T00:12:18.717Z,98.31
2022-10-17T00:14:45.243Z,98.22
2022-10-17T00:17:11.679Z,98.91
2022-10-17T00:19:38.114Z,98.00
2022-10-17T00:22:04.606Z,98.14
2022-10-17T00:24:31.773Z,98.67
2022-10-17T00:26:58.356Z,98.82
2022-10-17T00:29:24.888Z,99.15
2022-10-17T00:31:55.961Z,99.26
2022-10-17T00:34:23.268Z,99.15
2022-10-17T00:36:49.883Z,99.10
2022-10-17T00:39:16.528Z,99.09
2022-10-17T00:41:43.027Z,99.14
2022-10-17T00:44:31.186Z,99.51
2022-10-17T00:46:59.670Z,99.42
2022-10-17T00:49:28.852Z,99.54
2022-10-17T00:52:06.076Z,99.75
2022-10-17T00:54:35.447Z,100.00
2022-10-17T00:57:02.399Z,100.00
2022-10-17T00:59:30.906Z,100.00
2022-10-17T01:02:03.615Z,100.00
2022-10-17T01:04:30.427Z,100.00
2022-10-17T01:06:56.864Z,100.00
2022-10-17T01:09:24.130Z,100.00
2022-10-17T01:12:20.482Z,100.00
2022-10-17T01:15:13.786Z,100.00
2022-10-17T01:18:15.695Z,100.00
2022-10-17T01:21:10.042Z,100.00
2022-10-17T01:24:04.630Z,100.00
2022-10-17T01:26:50.232Z,100.00
2022-10-17T01:29:33.371Z,100.00
2022-10-17T01:32:16.798Z,100.00
2022-10-17T01:34:55.533Z,100.00
2022-10-17T01:37:33.343Z,100.00
2022-10-17T01:40:09.094Z,100.00
2022-10-17T01:42:58.504Z,100.00
2022-10-17T01:45:32.749Z,100.00
2022-10-17T01:48:01.292Z,100.00
2022-10-17T01:50:53.642Z,100.00
2022-10-17T01:53:29.876Z,100.00
2022-10-17T01:56:01.088Z,100.00
2022-10-17T01:58:32.648Z,100.00
2022-10-17T02:01:03.765Z,100.00
2022-10-17T02:03:32.357Z,100.00
2022-10-17T02:05:58.751Z,100.00
2022-10-17T02:08:27.560Z,100.00
2022-10-17T02:11:01.263Z,100.00
2022-10-17T02:13:42.952Z,100.00
2022-10-17T02:17:06.962Z,100.00
2022-10-17T02:20:03.022Z,100.00
2022-10-17T02:22:38.268Z,100.00
2022-10-17T02:25:25.560Z,100.00
2022-10-17T02:27:58.961Z,100.00
2022-10-17T02:30:41.260Z,100.00
2022-10-17T02:33:14.487Z,100.00
2022-10-17T02:35:49.871Z,100.00
2022-10-17T02:38:16.520Z,100.00
2022-10-17T02:40:45.924Z,100.00
2022-10-17T02:43:13.168Z,100.00
2022-10-17T02:45:40.482Z,100.00
2022-10-17T02:48:13.802Z,100.00
2022-10-17T02:51:04.828Z,100.00
2022-10-17T02:53:52.623Z,100.00
2022-10-17T02:56:21.236Z,100.00
2022-10-17T02:58:55.876Z,100.00
2022-10-17T03:01:22.577Z,100.00
2022-10-17T03:03:49.130Z,100.00
2022-10-17T03:06:15.933Z,100.00
2022-10-17T03:08:42.514Z,100.00
2022-10-17T03:11:09.097Z,100.00
2022-10-17T03:13:38.991Z,100.00
2022-10-17T03:16:06.562Z,100.00
2022-10-17T03:18:33.091Z,100.00
2022-10-17T03:20:59.524Z,100.00
2022-10-17T03:23:25.927Z,100.00
2022-10-17T03:25:52.385Z,100.00
2022-10-17T03:28:18.831Z,100.00
2022-10-17T03:30:45.257Z,100.00
2022-10-17T03:33:11.650Z,100.00
2022-10-17T03:35:40.286Z,100.00
2022-10-17T03:38:06.841Z,100.00
2022-10-17T03:40:33.226Z,100.00
2022-10-17T03:42:59.635Z,100.00
2022-10-17T03:45:26.036Z,100.00
2022-10-17T03:47:52.498Z,100.00
2022-10-17T03:50:18.979Z,100.00
2022-10-17T03:52:49.513Z,100.00
2022-10-17T03:55:16.657Z,100.00
2022-10-17T03:57:45.414Z,100.00
2022-10-17T04:00:13.012Z,100.00
2022-10-17T04:02:39.559Z,100.00
2022-10-17T04:05:06.606Z,100.00
2022-10-17T04:07:33.052Z,100.00
2022-10-17T04:09:59.468Z,100.00
2022-10-17T04:12:25.936Z,100.00
2022-10-17T04:14:52.401Z,100.00
2022-10-17T04:17:18.907Z,100.00
2022-10-17T04:19:45.445Z,100.00
2022-10-17T04:22:11.932Z,100.00
2022-10-17T04:24:38.391Z,100.00
2022-10-17T04:27:04.806Z,100.00
2022-10-17T04:29:31.347Z,100.00
2022-10-17T04:31:57.825Z,100.00
2022-10-17T04:34:24.512Z,100.00
2022-10-17T04:36:51.863Z,100.00
2022-10-17T04:39:18.491Z,100.00
2022-10-17T04:41:45.151Z,100.00
2022-10-17T04:44:11.997Z,100.00
2022-10-17T04:46:38.518Z,100.00
2022-10-17T04:49:04.977Z,100.00
2022-10-17T04:51:31.463Z,100.00
2022-10-17T04:53:57.910Z,100.00
2022-10-17T04:56:24.774Z,100.00
2022-10-17T04:58:51.936Z,100.00
2022-10-17T05:01:20.758Z,100.00
2022-10-17T05:03:50.195Z,100.00
2022-10-17T05:06:23.094Z,100.00
2022-10-17T05:08:49.948Z,100.00
2022-10-17T05:11:28.858Z,100.00
2022-10-17T05:13:57.988Z,100.00
2022-10-17T05:16:25.692Z,100.00
2022-10-17T05:18:54.348Z,100.00
2022-10-17T05:21:22.491Z,100.00
2022-10-17T05:23:49.769Z,100.00
2022-10-17T05:26:16.492Z,100.00
2022-10-17T05:28:42.971Z,100.00
2022-10-17T05:31:11.356Z,100.00
2022-10-17T05:33:39.040Z,100.00
2022-10-17T05:36:07.015Z,100.00
2022-10-17T05:38:33.659Z,100.00
2022-10-17T05:41:01.661Z,100.00
2022-10-17T05:43:28.096Z,100.00
2022-10-17T05:45:55.224Z,100.00
2022-10-17T05:48:23.075Z,99.79
2022-10-17T05:50:50.000Z,98.95
2022-10-17T05:53:17.340Z,99.08
2022-10-17T05:55:43.744Z,99.27
2022-10-17T05:58:17.616Z,98.87
2022-10-17T06:00:48.805Z,98.55
2022-10-17T06:03:15.245Z,98.88
2022-10-17T06:05:41.828Z,98.64
2022-10-17T06:08:08.369Z,98.53
2022-10-17T06:10:34.879Z,98.50
2022-10-17T06:13:01.428Z,98.33
2022-10-17T06:15:27.877Z,98.27
2022-10-17T06:17:54.320Z,98.23
2022-10-17T06:20:20.878Z,98.68
2022-10-17T06:22:47.276Z,98.99
2022-10-17T06:25:13.813Z,98.87
2022-10-17T06:27:40.304Z,99.17
2022-10-17T06:30:07.884Z,99.57
2022-10-17T06:32:34.284Z,99.69
2022-10-17T06:35:00.712Z,99.98
2022-10-17T06:37:35.314Z,100.00
2022-10-17T06:40:03.483Z,99.94
2022-10-17T06:42:29.920Z,100.00
2022-10-17T06:44:56.352Z,99.93
2022-10-17T06:47:22.874Z,100.00
2022-10-17T06:49:49.263Z,100.00
2022-10-17T06:52:17.068Z,99.93
2022-10-17T06:54:44.392Z,100.00
2022-10-17T06:57:11.018Z,100.00
2022-10-17T06:59:37.497Z,100.00
2022-10-17T07:02:05.322Z,99.96
2022-10-17T07:04:32.057Z,100.00
2022-10-17T07:09:31.142Z,100.00
2022-10-17T07:11:57.654Z,100.00
2022-10-17T07:14:26.101Z,100.00
2022-10-17T07:16:52.566Z,99.95
2022-10-17T07:19:19.027Z,100.00
2022-10-17T07:21:45.565Z,100.00
2022-10-17T07:24:12.930Z,100.00
2022-10-17T07:26:39.431Z,100.00
2022-10-17T07:29:07.303Z,100.00
2022-10-17T07:31:34.095Z,100.00
2022-10-17T07:34:00.846Z,99.94
2022-10-17T07:36:27.345Z,99.98
2022-10-17T07:38:53.823Z,100.00
2022-10-17T07:41:21.781Z,99.98
2022-10-17T07:43:49.121Z,99.94
2022-10-17T07:46:15.565Z,99.78
2022-10-17T07:48:42.036Z,99.73
2022-10-17T07:51:10.174Z,99.65
2022-10-17T07:53:38.517Z,100.00
2022-10-17T07:56:09.024Z,100.00
2022-10-17T07:58:36.931Z,100.00
2022-10-17T08:01:04.416Z,100.00
2022-10-17T08:03:31.054Z,100.00
2022-10-17T08:06:01.484Z,100.00
2022-10-17T08:08:28.306Z,100.00
2022-10-17T08:10:56.476Z,100.00
2022-10-17T08:13:23.239Z,100.00
2022-10-17T08:15:49.907Z,100.00
2022-10-17T08:18:17.630Z,100.00
2022-10-17T08:20:44.254Z,100.00
2022-10-17T08:23:10.787Z,100.00
2022-10-17T08:25:40.011Z,100.00
2022-10-17T08:30:34.356Z,100.00
2022-10-17T08:33:03.920Z,100.00
2022-10-17T08:35:30.376Z,100.00
2022-10-17T08:37:59.363Z,100.00
2022-10-17T08:40:29.112Z,100.00
2022-10-17T08:43:03.568Z,100.00
2022-10-17T08:45:39.508Z,100.00
2022-10-17T08:48:12.220Z,100.00
2022-10-17T08:50:38.547Z,100.00
2022-10-17T08:53:15.831Z,100.00
2022-10-17T08:55:53.343Z,100.00
2022-10-17T08:58:32.441Z,100.00
2022-10-17T09:01:30.022Z,100.00
2022-10-17T09:04:24.830Z,100.00
2022-10-17T09:07:19.287Z,100.00
2022-10-17T09:10:11.548Z,100.00
2022-10-17T09:12:58.050Z,100.00
2022-10-17T09:15:43.511Z,100.00
2022-10-17T09:18:31.882Z,100.00
2022-10-17T09:21:25.140Z,100.00
2022-10-17T09:24:03.820Z,100.00
2022-10-17T09:26:38.917Z,100.00
2022-10-17T09:29:15.348Z,100.00
2022-10-17T09:31:49.142Z,100.00
2022-10-17T09:34:16.103Z,100.00
2022-10-17T09:36:43.904Z,100.00
2022-10-17T09:39:18.984Z,100.00
2022-10-17T09:41:52.903Z,100.00
2022-10-17T09:44:21.991Z,100.00
2022-10-17T09:47:22.603Z,100.00
2022-10-17T09:49:50.339Z,100.00
2022-10-17T09:52:39.151Z,100.00
2022-10-17T09:55:17.771Z,100.00
2022-10-17T09:57:55.315Z,100.00
2022-10-17T10:00:34.033Z,100.00
2022-10-17T10:03:30.106Z,100.00
2022-10-17T10:06:15.413Z,100.00
2022-10-17T10:08:58.606Z,100.00
2022-10-17T10:11:45.152Z,100.00
2022-10-17T10:14:35.851Z,100.00
2022-10-17T10:17:04.669Z,100.00
2022-10-17T10:19:36.683Z,100.00
2022-10-17T10:22:17.301Z,100.00
2022-10-17T10:24:43.835Z,100.00
2022-10-17T10:27:16.960Z,100.00
2022-10-17T10:29:52.716Z,100.00
2022-10-17T10:32:24.187Z,100.00
2022-10-17T10:35:00.823Z,100.00
2022-10-17T10:37:33.597Z,100.00
2022-10-17T10:40:29.026Z,100.00
2022-10-17T10:43:04.036Z,100.00
2022-10-17T10:45:53.367Z,100.00
2022-10-17T10:48:44.678Z,100.00
2022-10-17T10:51:17.335Z,100.00
2022-10-17T10:54:10.136Z,100.00
2022-10-17T10:56:44.857Z,100.00
2022-10-17T10:59:20.759Z,100.00
2022-10-17T11:02:25.193Z,100.00
2022-10-17T11:05:06.388Z,100.00
2022-10-17T11:08:11.752Z,100.00
2022-10-17T11:10:55.302Z,100.00
2022-10-17T11:13:36.805Z,100.00
2022-10-17T11:16:23.440Z,100.00
2022-10-17T11:19:13.713Z,100.00
2022-10-17T11:22:05.224Z,100.00
2022-10-17T11:24:40.312Z,100.00
2022-10-17T11:27:07.829Z,100.00
2022-10-17T11:29:38.589Z,100.00
2022-10-17T11:32:15.403Z,100.00
2022-10-17T11:34:47.443Z,100.00
2022-10-17T11:37:18.651Z,100.00
2022-10-17T11:39:51.632Z,100.00
2022-10-17T11:42:27.538Z,100.00
2022-10-17T11:45:03.002Z,99.76
2022-10-17T11:47:39.426Z,100.00
2022-10-17T11:53:20.617Z,100.00
2022-10-17T11:55:47.797Z,100.00
2022-10-17T11:58:33.996Z,100.00
2022-10-17T12:01:30.275Z,100.00
2022-10-17T12:03:59.638Z,100.00
2022-10-17T12:06:47.571Z,100.00
2022-10-17T12:09:29.978Z,100.00
2022-10-17T12:12:02.393Z,100.00
2022-10-17T12:14:46.399Z,100.00
2022-10-17T12:17:35.376Z,100.00
2022-10-17T12:20:21.225Z,100.00
2022-10-17T12:22:51.128Z,100.00
2022-10-17T12:25:33.854Z,100.00
2022-10-17T12:28:06.357Z,100.00
2022-10-17T12:30:33.962Z,100.00
2022-10-17T12:33:22.232Z,100.00
2022-10-17T12:35:51.117Z,100.00
2022-10-17T12:38:17.499Z,100.00
2022-10-17T12:40:48.506Z,100.00
2022-10-17T12:43:15.432Z,100.00
2022-10-17T12:45:57.975Z,100.00
2022-10-17T12:48:33.826Z,100.00
2022-10-17T12:51:30.866Z,100.00
2022-10-17T12:54:07.031Z,100.00
2022-10-17T12:56:46.712Z,100.00
2022-10-17T12:59:16.056Z,100.00
2022-10-17T13:01:46.521Z,100.00
2022-10-17T13:04:13.361Z,100.00
2022-10-17T13:06:53.959Z,100.00
2022-10-17T13:09:31.151Z,100.00
2022-10-17T13:12:00.715Z,100.00
2022-10-17T13:14:28.555Z,100.00
2022-10-17T13:16:57.520Z,100.00
2022-10-17T13:19:27.190Z,100.00
2022-10-17T13:21:59.863Z,100.00
2022-10-17T13:24:37.395Z,100.00
2022-10-17T13:27:05.150Z,100.00
2022-10-17T13:29:32.946Z,100.00
2022-10-17T13:32:03.814Z,100.00
2022-10-17T13:34:32.372Z,100.00
2022-10-17T13:37:05.018Z,100.00
2022-10-17T13:39:54.453Z,100.00
2022-10-17T13:42:36.624Z,100.00
2022-10-17T13:45:03.896Z,100.00
2022-10-17T13:47:39.233Z,100.00
2022-10-17T13:50:12.684Z,100.00
2022-10-17T13:52:47.661Z,99.96
2022-10-17T13:55:20.193Z,99.41
2022-10-17T13:57:47.205Z,98.45
2022-10-17T14:00:21.355Z,98.96
2022-10-17T14:02:48.389Z,99.02
2022-10-17T14:05:20.779Z,99.25
2022-10-17T14:08:12.476Z,99.34
2022-10-17T14:10:42.185Z,99.92
2022-10-17T14:13:20.909Z,99.89
2022-10-17T14:15:47.547Z,99.81
2022-10-17T14:18:19.595Z,98.83
2022-10-17T14:21:29.257Z,99.60
2022-10-17T14:23:43.521Z,99.03
2022-10-17T14:26:21.088Z,99.26
2022-10-17T14:28:51.731Z,99.35
2022-10-17T14:31:25.679Z,99.75
2022-10-17T14:33:53.283Z,98.78
2022-10-17T14:36:21.534Z,98.65
2022-10-17T14:38:51.819Z,98.26
2022-10-17T14:41:42.483Z,97.91
2022-10-17T14:44:18.884Z,97.51
2022-10-17T14:46:50.751Z,97.67
2022-10-17T14:49:25.343Z,98.09
2022-10-17T14:52:18.616Z,98.10
2022-10-17T14:54:49.764Z,97.87
2022-10-17T14:57:24.065Z,98.18
2022-10-17T14:59:55.093Z,97.87
2022-10-17T15:02:23.880Z,97.98
2022-10-17T15:04:50.274Z,98.08
2022-10-17T15:07:18.053Z,98.33
2022-10-17T15:09:47.185Z,98.36
2022-10-17T15:12:19.415Z,98.24
2022-10-17T15:14:47.868Z,98.90
2022-10-17T15:17:18.875Z,98.52
2022-10-17T15:19:45.369Z,97.99
2022-10-17T15:22:11.785Z,97.46
2022-10-17T15:24:38.326Z,97.91
2022-10-17T15:27:13.805Z,97.94
2022-10-17T15:29:40.212Z,98.33
2022-10-17T15:32:06.571Z,98.63
2022-10-17T15:34:32.951Z,97.96
2022-10-17T15:36:59.511Z,98.85
2022-10-17T15:39:26.073Z,98.95
2022-10-17T15:41:52.523Z,98.47
2022-10-17T15:44:18.913Z,98.46
2022-10-17T15:46:45.348Z,98.68
2022-10-17T15:49:14.258Z,98.54
2022-10-17T15:51:41.270Z,99.31
2022-10-17T15:54:07.712Z,99.34
2022-10-17T15:56:38.272Z,99.16
2022-10-17T15:59:07.708Z,99.57
2022-10-17T16:01:34.810Z,99.88
2022-10-17T16:04:01.589Z,99.99
2022-10-17T16:06:28.367Z,99.96
2022-10-17T16:08:55.040Z,100.00
2022-10-17T16:11:30.533Z,100.00
2022-10-17T16:13:59.361Z,100.00
2022-10-17T16:16:26.266Z,100.00
2022-10-17T16:18:52.799Z,100.00
2022-10-17T16:21:21.288Z,100.00
2022-10-17T16:23:47.784Z,100.00
2022-10-17T16:26:15.929Z,100.00
2022-10-17T16:28:46.057Z,100.00
2022-10-17T16:31:29.752Z,100.00
2022-10-17T16:33:58.115Z,100.00
2022-10-17T16:36:25.216Z,100.00
2022-10-17T16:38:53.867Z,100.00
2022-10-17T16:41:24.061Z,100.00
2022-10-17T16:43:52.137Z,100.00
2022-10-17T16:46:19.410Z,100.00
2022-10-17T16:48:46.623Z,100.00
2022-10-17T16:51:14.391Z,100.00
2022-10-17T16:53:43.884Z,100.00
2022-10-17T16:56:13.189Z,100.00
2022-10-17T16:58:40.543Z,100.00
2022-10-17T17:01:10.192Z,100.00
2022-10-17T17:03:38.340Z,100.00
2022-10-17T17:06:06.662Z,100.00
2022-10-17T17:08:34.183Z,100.00
2022-10-17T17:11:00.793Z,100.00
2022-10-17T17:13:29.008Z,100.00
2022-10-17T17:16:07.275Z,100.00
2022-10-17T17:18:34.560Z,100.00
2022-10-17T17:21:03.065Z,100.00
2022-10-17T17:23:30.150Z,100.00
2022-10-17T17:26:01.532Z,100.00
2022-10-17T17:28:28.711Z,100.00
2022-10-17T17:30:55.566Z,100.00
2022-10-17T17:33:23.304Z,100.00
2022-10-17T17:36:01.070Z,100.00
2022-10-17T17:38:32.594Z,100.00
2022-10-17T17:40:59.441Z,100.00
2022-10-17T17:43:26.272Z,100.00
2022-10-17T17:45:52.995Z,100.00
2022-10-17T17:48:22.069Z,100.00
2022-10-17T17:50:48.994Z,100.00
2022-10-17T17:53:17.694Z,100.00
2022-10-17T17:55:44.942Z,100.00
2022-10-17T17:58:12.344Z,100.00
2022-10-17T18:00:40.551Z,100.00
2022-10-17T18:03:07.432Z,100.00
2022-10-17T18:05:34.269Z,100.00
2022-10-17T18:08:01.725Z,99.90
2022-10-17T18:10:29.345Z,100.00
2022-10-17T18:12:55.864Z,100.00
2022-10-17T18:15:22.273Z,100.00
2022-10-17T18:17:49.165Z,100.00
2022-10-17T18:20:15.721Z,100.00
2022-10-17T18:22:42.226Z,100.00
2022-10-17T18:25:08.895Z,100.00
2022-10-17T18:27:35.331Z,100.00
2022-10-17T18:30:01.801Z,100.00
2022-10-17T18:32:31.422Z,100.00
2022-10-17T18:34:59.648Z,100.00
2022-10-17T18:37:25.991Z,100.00
2022-10-17T18:39:55.261Z,100.00
2022-10-17T18:42:21.728Z,100.00
2022-10-17T18:44:48.181Z,99.94
2022-10-17T18:47:14.655Z,100.00
2022-10-17T18:49:41.054Z,100.00
2022-10-17T18:52:07.474Z,100.00
2022-10-17T18:54:34.685Z,100.00
2022-10-17T18:57:01.317Z,100.00
2022-10-17T18:59:28.636Z,100.00
2022-10-17T19:01:55.168Z,100.00
2022-10-17T19:04:23.180Z,100.00
2022-10-17T19:06:50.483Z,100.00
2022-10-17T19:09:17.047Z,100.00
2022-10-17T19:11:43.733Z,100.00
2022-10-17T19:14:15.038Z,100.00
2022-10-17T19:16:48.123Z,100.00
2022-10-17T19:19:20.311Z,100.00
2022-10-17T19:21:48.231Z,100.00
2022-10-17T19:24:17.767Z,100.00
2022-10-17T19:26:53.981Z,100.00
2022-10-17T19:29:22.395Z,100.00
2022-10-17T19:31:49.265Z,100.00
2022-10-17T19:34:16.191Z,100.00
2022-10-17T19:36:43.403Z,100.00
2022-10-17T19:39:14.006Z,100.00
2022-10-17T19:41:42.495Z,100.00
2022-10-17T19:44:09.318Z,100.00
2022-10-17T19:46:35.880Z,100.00
2022-10-17T19:49:03.058Z,100.00
2022-10-17T19:51:29.825Z,100.00
2022-10-17T19:54:00.214Z,100.00
2022-10-17T19:56:28.816Z,100.00
2022-10-17T19:58:56.904Z,100.00
2022-10-17T20:01:25.930Z,100.00
2022-10-17T20:03:53.204Z,100.00
2022-10-17T20:06:20.199Z,100.00
2022-10-17T20:08:47.967Z,100.00
2022-10-17T20:11:17.824Z,100.00
2022-10-17T20:13:44.908Z,100.00
2022-10-17T20:16:18.335Z,100.00
2022-10-17T20:18:44.895Z,100.00
2022-10-17T20:21:14.320Z,100.00
2022-10-17T20:23:41.655Z,100.00
2022-10-17T20:26:25.986Z,100.00
2022-10-17T20:29:01.251Z,100.00
2022-10-17T20:31:28.372Z,100.00
2022-10-17T20:33:56.169Z,100.00
2022-10-17T20:36:23.550Z,100.00
2022-10-17T20:38:55.499Z,100.00
2022-10-17T20:41:26.046Z,100.00
2022-10-17T20:43:56.359Z,100.00
2022-10-17T20:46:36.325Z,100.00
2022-10-17T20:49:07.879Z,100.00
2022-10-17T20:51:35.557Z,100.00
2022-10-17T20:54:03.086Z,100.00
2022-10-17T20:56:31.561Z,100.00
2022-10-17T20:59:00.550Z,100.00
2022-10-17T21:01:28.518Z,100.00
2022-10-17T21:03:55.052Z,100.00
2022-10-17T21:06:37.371Z,100.00
2022-10-17T21:09:05.078Z,100.00
2022-10-17T21:11:31.826Z,100.00
2022-10-17T21:14:03.520Z,100.00
2022-10-17T21:16:32.077Z,100.00
2022-10-17T21:18:58.983Z,100.00
2022-10-17T21:21:31.086Z,100.00
2022-10-17T21:24:00.710Z,100.00
2022-10-17T21:26:27.644Z,100.00
2022-10-17T21:28:54.537Z,100.00
2022-10-17T21:31:26.144Z,100.00
2022-10-17T21:33:55.616Z,100.00
2022-10-17T21:36:23.148Z,100.00
2022-10-17T21:38:51.618Z,100.00
2022-10-17T21:41:21.880Z,100.00
2022-10-17T21:43:52.815Z,100.00
2022-10-17T21:46:20.041Z,100.00
2022-10-17T21:48:47.883Z,100.00
2022-10-17T21:51:16.508Z,100.00
2022-10-17T21:53:43.788Z,100.00
2022-10-17T21:56:16.606Z,100.00
2022-10-17T21:58:43.596Z,100.00
2022-10-17T22:01:15.355Z,100.00
2022-10-17T22:03:46.690Z,100.00
2022-10-17T22:09:15.506Z,100.00
2022-10-17T22:11:45.450Z,100.00
2022-10-17T22:14:14.778Z,100.00
2022-10-17T22:16:41.587Z,100.00
2022-10-17T22:19:09.133Z,100.00
2022-10-17T22:21:37.501Z,100.00
2022-10-17T22:24:07.546Z,100.00
2022-10-17T22:26:36.275Z,100.00
2022-10-17T22:29:04.298Z,100.00
2022-10-17T22:31:31.202Z,100.00
2022-10-17T22:33:57.707Z,100.00
2022-10-17T22:36:24.185Z,100.00
2022-10-17T22:38:50.682Z,100.00
2022-10-17T22:41:17.562Z,100.00
2022-10-17T22:43:44.392Z,100.00
2022-10-17T22:46:13.607Z,100.00
2022-10-17T22:48:40.218Z,100.00
2022-10-17T22:51:06.807Z,100.00
2022-10-17T22:53:35.194Z,100.00
2022-10-17T22:56:14.270Z,100.00
2022-10-17T22:58:40.925Z,100.00
2022-10-17T23:01:10.328Z,100.00
2022-10-17T23:03:36.814Z,100.00
2022-10-17T23:06:03.778Z,100.00
2022-10-17T23:08:30.276Z,100.00
2022-10-17T23:10:56.795Z,100.00
2022-10-17T23:13:23.367Z,100.00
2022-10-17T23:15:52.670Z,100.00
2022-10-17T23:18:19.748Z,100.00
2022-10-17T23:20:46.343Z,100.00
2022-10-17T23:23:13.348Z,100.00
2022-10-17T23:25:39.881Z,100.00
2022-10-17T23:28:08.058Z,100.00
2022-10-17T23:30:34.883Z,100.00
2022-10-17T23:33:01.283Z,100.00
2022-10-17T23:35:27.896Z,100.00
2022-10-17T23:37:54.346Z,100.00
2022-10-17T23:40:20.946Z,100.00
2022-10-17T23:42:47.458Z,100.00
2022-10-17T23:45:13.889Z,100.00
2022-10-17T23:47:40.348Z,100.00
2022-10-17T23:50:07.151Z,100.00
2022-10-17T23:52:33.562Z,100.00
2022-10-17T23:55:00.012Z,100.00
2022-10-17T23:57:26.604Z,100.00
2022-10-17T23:59:53.114Z,100.00
